createdAt,value
2022-10-25T00:00:01.865Z,1003.2479870851635
2022-10-25T00:15:02.561Z,1003.3265904508169
2022-10-25T00:30:02.236Z,1003.4325938968301
2022-10-25T00:45:01.936Z,1003.4583524342685
2022-10-25T01:00:01.602Z,1003.4999450148373
2022-10-25T01:15:02.283Z,1003.6087131134014
2022-10-25T01:30:01.946Z,1003.5890740425477
2022-10-25T01:45:01.618Z,1003.649710499625
2022-10-25T02:00:02.322Z,1003.6895486766906
2022-10-25T02:15:01.975Z,1003.6929945425197
2022-10-25T02:30:01.712Z,1003.8105308446123
2022-10-25T02:45:02.345Z,1003.8252271594065
2022-10-25T03:00:02.124Z,1004.0134497623472
2022-10-25T03:15:01.842Z,1003.998701986089
2022-10-25T03:30:02.515Z,1004.1164931012472
2022-10-25T03:45:02.170Z,1004.2314070609001
2022-10-25T04:00:01.811Z,1004.3613279114034
2022-10-25T04:15:02.437Z,1004.5030926228876
2022-10-25T04:30:01.717Z,1004.6570021495997
2022-10-25T04:45:02.371Z,1004.585955490394
2022-10-25T05:00:02.058Z,1004.6338872038276
2022-10-25T05:15:01.736Z,1004.7730398994349
2022-10-25T05:30:02.568Z,1004.8947836697911
2022-10-25T05:45:02.222Z,1005.046664031865
2022-10-25T06:00:01.899Z,1005.1661799210149
2022-10-25T06:15:02.527Z,1005.3431838343433
2022-10-25T06:30:02.226Z,1005.4806699013507
2022-10-25T06:45:01.968Z,1005.7577878209412
2022-10-25T07:15:02.312Z,1006.0612941172742
2022-10-25T07:30:01.974Z,1006.3813832487338
2022-10-25T07:45:01.663Z,1006.5089990699327
2022-10-25T08:00:02.377Z,1006.6424196047066
2022-10-25T08:15:02.029Z,1006.82641926322
2022-10-25T08:30:01.737Z,1006.7034933550299
2022-10-25T08:45:02.398Z,1006.8962641466394
2022-10-25T09:00:02.039Z,1007.1056824395131
2022-10-25T09:15:01.745Z,1007.2702261319918
2022-10-25T09:30:05.171Z,1007.3419857027809
2022-10-25T09:45:02.208Z,1007.4650684613854
2022-10-25T10:00:01.883Z,1007.5348030291992
2022-10-25T10:15:02.581Z,1007.7430453648429
2022-10-25T10:30:02.274Z,1007.8711465703061
2022-10-25T10:45:01.887Z,1007.9854879465328
2022-10-25T11:00:02.535Z,1008.0427500874516
2022-10-25T11:15:02.211Z,1008.1461914986378
2022-10-25T11:30:01.943Z,1008.0726758584885
2022-10-25T11:45:01.603Z,1008.1612246389772
2022-10-25T12:00:02.279Z,1008.2554120969938
2022-10-25T12:15:01.991Z,1008.5135294251887
2022-10-25T12:30:01.688Z,1008.5398941287582
2022-10-25T12:45:02.347Z,1008.6168473781598
2022-10-25T13:00:01.987Z,1008.5894981106973
2022-10-25T13:15:01.665Z,1008.5589198824848
2022-10-25T13:30:02.493Z,1008.5663601231016
2022-10-25T13:45:02.301Z,1008.4550692184183
2022-10-25T14:00:02.051Z,1008.3803393464393
2022-10-25T14:15:01.843Z,1008.3326771566714
2022-10-25T14:30:02.675Z,1008.3512221427242
2022-10-25T14:45:02.271Z,1008.3175093890031
2022-10-25T15:00:02.089Z,1008.3789862240614
2022-10-25T15:15:01.805Z,1008.32398937261
2022-10-25T15:30:02.479Z,1008.2424202123963
2022-10-25T15:45:02.138Z,1008.3500967743826
2022-10-25T16:00:01.825Z,1008.2458571514995
2022-10-25T16:15:02.441Z,1008.2651473863972
2022-10-25T16:30:02.151Z,1008.4609140815787
2022-10-25T16:45:01.802Z,1008.6081974984506
2022-10-25T17:00:02.445Z,1008.593263503531
2022-10-25T17:15:02.097Z,1008.5439286576698
2022-10-25T17:30:01.817Z,1008.5397576629664
2022-10-25T17:45:02.477Z,1008.503158911131
2022-10-25T18:00:02.134Z,1008.5488466158732
2022-10-25T18:15:01.798Z,1008.5847835705578
2022-10-25T18:30:02.485Z,1008.6960279262246
2022-10-25T18:45:02.103Z,1008.7792203293968
2022-10-25T19:00:01.796Z,1008.7261499228135
2022-10-25T19:15:02.486Z,1008.5795291539055
2022-10-25T19:30:02.111Z,1008.4766489688155
2022-10-25T19:45:01.782Z,1008.522223257821
2022-10-25T20:00:02.431Z,1008.4332255902076
2022-10-25T20:15:02.114Z,1008.4927112103348
2022-10-25T20:30:01.919Z,1008.4851490793233
2022-10-25T21:00:02.202Z,1008.5456405523272
2022-10-25T21:15:01.883Z,1008.515660222063
2022-10-25T21:30:02.557Z,1008.405515674251
2022-10-25T21:45:02.185Z,1008.3110108803977
2022-10-25T22:00:01.926Z,1008.3145308257316
2022-10-25T22:15:01.593Z,1008.3440338631306
2022-10-25T22:30:02.227Z,1008.3657085637491
2022-10-25T22:45:01.921Z,1008.3346384669843
2022-10-25T23:00:02.586Z,1008.3239213893957
2022-10-25T23:15:02.255Z,1008.23778192595
2022-10-25T23:30:01.975Z,1008.2760994040057
2022-10-25T23:45:01.665Z,1008.214414100812
